sensor_id;sensor_type;location;lat;lon;timestamp;pressure;altitude;pressure_sealevel;temperature;humidity
53262;BME280;39658;51.090;-1.786;2023-05-24T00:00:54;102481.94;;;8.62;100.00
53262;BME280;39658;51.090;-1.786;2023-05-24T00:03:21;102495.25;;;8.56;100.00
53262;BME280;39658;51.090;-1.786;2023-05-24T00:05:50;102505.00;;;8.52;100.00
53262;BME280;39658;51.090;-1.786;2023-05-24T00:08:16;102512.13;;;8.49;100.00
53262;BME280;39658;51.090;-1.786;2023-05-24T00:10:43;102514.84;;;8.46;100.00
53262;BME280;39658;51.090;-1.786;2023-05-24T00:13:10;102490.34;;;8.43;100.00
53262;BME280;39658;51.090;-1.786;2023-05-24T00:15:37;102495.63;;;8.42;100.00
53262;BME280;39658;51.090;-1.786;2023-05-24T00:18:04;102492.09;;;8.43;100.00
53262;BME280;39658;51.090;-1.786;2023-05-24T00:20:31;102479.84;;;8.43;100.00
53262;BME280;39658;51.090;-1.786;2023-05-24T00:22:59;102484.25;;;8.41;100.00
53262;BME280;39658;51.090;-1.786;2023-05-24T00:25:26;102486.16;;;8.36;100.00
53262;BME280;39658;51.090;-1.786;2023-05-24T00:27:53;102490.63;;;8.33;100.00
53262;BME280;39658;51.090;-1.786;2023-05-24T00:30:19;102488.97;;;8.30;100.00
53262;BME280;39658;51.090;-1.786;2023-05-24T00:32:46;102489.09;;;8.25;100.00
53262;BME280;39658;51.090;-1.786;2023-05-24T00:35:13;102492.69;;;8.21;100.00
53262;BME280;39658;51.090;-1.786;2023-05-24T00:37:40;102491.06;;;8.17;100.00
53262;BME280;39658;51.090;-1.786;2023-05-24T00:40:11;102496.41;;;8.14;100.00
53262;BME280;39658;51.090;-1.786;2023-05-24T00:42:38;102493.81;;;8.13;100.00
53262;BME280;39658;51.090;-1.786;2023-05-24T00:45:06;102500.06;;;8.08;100.00
53262;BME280;39658;51.090;-1.786;2023-05-24T00:47:33;102508.03;;;8.05;100.00
53262;BME280;39658;51.090;-1.786;2023-05-24T00:50:00;102509.00;;;8.01;100.00
53262;BME280;39658;51.090;-1.786;2023-05-24T00:52:26;102506.44;;;7.98;100.00
53262;BME280;39658;51.090;-1.786;2023-05-24T00:54:53;102515.34;;;7.94;100.00
53262;BME280;39658;51.090;-1.786;2023-05-24T00:57:22;102513.59;;;7.93;100.00
53262;BME280;39658;51.090;-1.786;2023-05-24T00:59:49;102508.44;;;7.90;100.00
53262;BME280;39658;51.090;-1.786;2023-05-24T01:02:16;102508.50;;;7.87;100.00
53262;BME280;39658;51.090;-1.786;2023-05-24T01:04:45;102509.41;;;7.86;100.00
53262;BME280;39658;51.090;-1.786;2023-05-24T01:07:20;102492.06;;;7.80;100.00
53262;BME280;39658;51.090;-1.786;2023-05-24T01:10:02;102501.75;;;7.77;100.00
53262;BME280;39658;51.090;-1.786;2023-05-24T01:12:44;102493.16;;;7.71;100.00
53262;BME280;39658;51.090;-1.786;2023-05-24T01:15:19;102499.31;;;7.69;100.00
53262;BME280;39658;51.090;-1.786;2023-05-24T01:17:52;102503.72;;;7.68;100.00
53262;BME280;39658;51.090;-1.786;2023-05-24T01:20:22;102500.28;;;7.66;100.00
53262;BME280;39658;51.090;-1.786;2023-05-24T01:23:14;102499.38;;;7.67;100.00
53262;BME280;39658;51.090;-1.786;2023-05-24T01:26:05;102485.34;;;7.68;100.00
53262;BME280;39658;51.090;-1.786;2023-05-24T01:28:38;102439.94;;;7.65;100.00
53262;BME280;39658;51.090;-1.786;2023-05-24T01:31:05;102353.31;;;7.65;100.00
53262;BME280;39658;51.090;-1.786;2023-05-24T01:33:32;102304.41;;;7.61;100.00
53262;BME280;39658;51.090;-1.786;2023-05-24T01:35:59;102233.72;;;7.54;100.00
53262;BME280;39658;51.090;-1.786;2023-05-24T01:38:26;103095.69;;;7.49;100.00
53262;BME280;39658;51.090;-1.786;2023-05-24T01:41:06;103096.59;;;7.45;100.00
53262;BME280;39658;51.090;-1.786;2023-05-24T01:43:37;103094.03;;;7.40;100.00
53262;BME280;39658;51.090;-1.786;2023-05-24T01:46:09;103098.56;;;7.30;100.00
53262;BME280;39658;51.090;-1.786;2023-05-24T01:48:44;103092.63;;;7.14;100.00
53262;BME280;39658;51.090;-1.786;2023-05-24T01:51:17;103101.53;;;7.06;100.00
53262;BME280;39658;51.090;-1.786;2023-05-24T01:53:45;103029.16;;;6.89;100.00
53262;BME280;39658;51.090;-1.786;2023-05-24T01:56:15;103038.81;;;6.87;100.00
53262;BME280;39658;51.090;-1.786;2023-05-24T01:58:46;103023.16;;;6.81;100.00
53262;BME280;39658;51.090;-1.786;2023-05-24T02:01:16;103029.31;;;6.78;100.00
53262;BME280;39658;51.090;-1.786;2023-05-24T02:03:44;103010.94;;;6.80;100.00
53262;BME280;39658;51.090;-1.786;2023-05-24T02:06:11;103003.06;;;6.80;100.00
53262;BME280;39658;51.090;-1.786;2023-05-24T02:08:38;102993.41;;;6.82;100.00
53262;BME280;39658;51.090;-1.786;2023-05-24T02:11:05;102989.91;;;6.83;100.00
53262;BME280;39658;51.090;-1.786;2023-05-24T02:13:31;102954.94;;;6.84;100.00
53262;BME280;39658;51.090;-1.786;2023-05-24T02:15:59;102956.66;;;6.85;100.00
53262;BME280;39658;51.090;-1.786;2023-05-24T02:18:26;102942.66;;;6.88;100.00
53262;BME280;39658;51.090;-1.786;2023-05-24T02:20:59;102918.19;;;6.87;100.00
53262;BME280;39658;51.090;-1.786;2023-05-24T02:23:25;102903.41;;;6.81;100.00
53262;BME280;39658;51.090;-1.786;2023-05-24T02:25:52;102872.94;;;6.74;100.00
53262;BME280;39658;51.090;-1.786;2023-05-24T02:28:19;102859.03;;;6.69;100.00
53262;BME280;39658;51.090;-1.786;2023-05-24T02:30:46;102847.69;;;6.69;100.00
53262;BME280;39658;51.090;-1.786;2023-05-24T02:33:14;102825.00;;;6.66;100.00
53262;BME280;39658;51.090;-1.786;2023-05-24T02:35:40;102806.69;;;6.63;100.00
53262;BME280;39658;51.090;-1.786;2023-05-24T02:38:07;102789.31;;;6.59;100.00
53262;BME280;39658;51.090;-1.786;2023-05-24T02:40:34;102764.88;;;6.55;100.00
53262;BME280;39658;51.090;-1.786;2023-05-24T02:43:01;102749.19;;;6.52;100.00
53262;BME280;39658;51.090;-1.786;2023-05-24T02:45:27;102726.47;;;6.54;100.00
53262;BME280;39658;51.090;-1.786;2023-05-24T02:47:54;102710.75;;;6.54;100.00
53262;BME280;39658;51.090;-1.786;2023-05-24T02:50:22;102686.28;;;6.54;100.00
53262;BME280;39658;51.090;-1.786;2023-05-24T02:52:49;102666.13;;;6.57;100.00
53262;BME280;39658;51.090;-1.786;2023-05-24T02:55:16;102635.56;;;6.56;100.00
53262;BME280;39658;51.090;-1.786;2023-05-24T02:57:43;102594.44;;;6.60;100.00
53262;BME280;39658;51.090;-1.786;2023-05-24T03:00:11;102570.88;;;6.58;100.00
53262;BME280;39658;51.090;-1.786;2023-05-24T03:02:38;102546.47;;;6.56;100.00
53262;BME280;39658;51.090;-1.786;2023-05-24T03:05:06;102535.97;;;6.56;100.00
53262;BME280;39658;51.090;-1.786;2023-05-24T03:07:34;102515.09;;;6.53;100.00
53262;BME280;39658;51.090;-1.786;2023-05-24T03:10:01;102476.63;;;6.54;100.00
53262;BME280;39658;51.090;-1.786;2023-05-24T03:12:27;102459.22;;;6.51;100.00
53262;BME280;39658;51.090;-1.786;2023-05-24T03:14:54;102449.69;;;6.47;100.00
53262;BME280;39658;51.090;-1.786;2023-05-24T03:17:21;102429.63;;;6.46;100.00
53262;BME280;39658;51.090;-1.786;2023-05-24T03:19:48;102407.88;;;6.42;100.00
53262;BME280;39658;51.090;-1.786;2023-05-24T03:22:15;102392.22;;;6.39;100.00
53262;BME280;39658;51.090;-1.786;2023-05-24T03:24:43;102375.56;;;6.42;100.00
53262;BME280;39658;51.090;-1.786;2023-05-24T03:27:10;102354.63;;;6.42;100.00
53262;BME280;39658;51.090;-1.786;2023-05-24T03:29:37;102338.13;;;6.37;100.00
53262;BME280;39658;51.090;-1.786;2023-05-24T03:32:04;102335.56;;;6.34;100.00
53262;BME280;39658;51.090;-1.786;2023-05-24T03:34:31;102327.75;;;6.32;100.00
53262;BME280;39658;51.090;-1.786;2023-05-24T03:36:58;102308.59;;;6.30;100.00
53262;BME280;39658;51.090;-1.786;2023-05-24T03:39:24;102296.34;;;6.31;100.00
53262;BME280;39658;51.090;-1.786;2023-05-24T03:41:52;102290.25;;;6.30;100.00
53262;BME280;39658;51.090;-1.786;2023-05-24T03:44:19;102284.19;;;6.28;100.00
53262;BME280;39658;51.090;-1.786;2023-05-24T03:46:46;102283.34;;;6.26;100.00
53262;BME280;39658;51.090;-1.786;2023-05-24T03:49:13;102280.75;;;6.24;100.00
53262;BME280;39658;51.090;-1.786;2023-05-24T03:51:39;102274.63;;;6.25;100.00
53262;BME280;39658;51.090;-1.786;2023-05-24T03:54:06;102272.94;;;6.23;100.00
53262;BME280;39658;51.090;-1.786;2023-05-24T03:56:33;102263.38;;;6.22;100.00
53262;BME280;39658;51.090;-1.786;2023-05-24T03:59:01;102263.38;;;6.22;100.00
53262;BME280;39658;51.090;-1.786;2023-05-24T04:01:28;102261.63;;;6.22;100.00
53262;BME280;39658;51.090;-1.786;2023-05-24T04:03:56;102254.72;;;6.18;100.00
53262;BME280;39658;51.090;-1.786;2023-05-24T04:06:23;102254.81;;;6.14;100.00
53262;BME280;39658;51.090;-1.786;2023-05-24T04:08:53;102250.63;;;6.06;100.00
53262;BME280;39658;51.090;-1.786;2023-05-24T04:11:20;102262.78;;;6.09;100.00
53262;BME280;39658;51.090;-1.786;2023-05-24T04:13:47;102251.41;;;6.10;100.00
53262;BME280;39658;51.090;-1.786;2023-05-24T04:16:16;102249.69;;;6.09;100.00
53262;BME280;39658;51.090;-1.786;2023-05-24T04:18:42;102258.41;;;6.09;100.00
53262;BME280;39658;51.090;-1.786;2023-05-24T04:21:09;102256.63;;;6.11;100.00
53262;BME280;39658;51.090;-1.786;2023-05-24T04:23:36;102254.84;;;6.12;100.00
53262;BME280;39658;51.090;-1.786;2023-05-24T04:26:03;102258.34;;;6.13;100.00
53262;BME280;39658;51.090;-1.786;2023-05-24T04:28:30;102253.09;;;6.14;100.00
53262;BME280;39658;51.090;-1.786;2023-05-24T04:30:58;102257.38;;;6.17;100.00
53262;BME280;39658;51.090;-1.786;2023-05-24T04:33:27;102255.63;;;6.17;100.00
53262;BME280;39658;51.090;-1.786;2023-05-24T04:35:54;102259.94;;;6.18;100.00
53262;BME280;39658;51.090;-1.786;2023-05-24T04:38:20;102253.81;;;6.19;100.00
53262;BME280;39658;51.090;-1.786;2023-05-24T04:40:48;102238.19;;;6.16;100.00
53262;BME280;39658;51.090;-1.786;2023-05-24T04:43:15;102248.47;;;6.24;100.00
53262;BME280;39658;51.090;-1.786;2023-05-24T04:45:42;102239.69;;;6.26;100.00
53262;BME280;39658;51.090;-1.786;2023-05-24T04:48:08;102234.44;;;6.28;100.00
53262;BME280;39658;51.090;-1.786;2023-05-24T04:50:36;102239.66;;;6.28;100.00
53262;BME280;39658;51.090;-1.786;2023-05-24T04:53:03;102228.28;;;6.29;100.00
53262;BME280;39658;51.090;-1.786;2023-05-24T04:55:30;102227.31;;;6.33;100.00
53262;BME280;39658;51.090;-1.786;2023-05-24T04:57:57;102232.47;;;6.36;100.00
53262;BME280;39658;51.090;-1.786;2023-05-24T05:00:24;102229.66;;;6.44;100.00
53262;BME280;39658;51.090;-1.786;2023-05-24T05:02:50;102239.06;;;6.53;100.00
53262;BME280;39658;51.090;-1.786;2023-05-24T05:05:17;102242.44;;;6.58;100.00
53262;BME280;39658;51.090;-1.786;2023-05-24T05:07:45;102244.09;;;6.62;100.00
53262;BME280;39658;51.090;-1.786;2023-05-24T05:10:12;102248.34;;;6.66;100.00
53262;BME280;39658;51.090;-1.786;2023-05-24T05:12:39;102246.47;;;6.71;100.00
53262;BME280;39658;51.090;-1.786;2023-05-24T05:15:07;102257.66;;;6.78;100.00
53262;BME280;39658;51.090;-1.786;2023-05-24T05:17:34;102258.34;;;6.85;100.00
53262;BME280;39658;51.090;-1.786;2023-05-24T05:20:01;102254.75;;;6.89;100.00
53262;BME280;39658;51.090;-1.786;2023-05-24T05:22:28;102252.03;;;6.93;100.00
53262;BME280;39658;51.090;-1.786;2023-05-24T05:24:56;102265.72;;;7.05;100.00
53262;BME280;39658;51.090;-1.786;2023-05-24T05:27:23;102262.84;;;7.14;100.00
53262;BME280;39658;51.090;-1.786;2023-05-24T05:29:50;102268.59;;;7.27;100.00
53262;BME280;39658;51.090;-1.786;2023-05-24T05:32:16;102266.59;;;7.36;100.00
53262;BME280;39658;51.090;-1.786;2023-05-24T05:34:43;102274.09;;;7.50;100.00
53262;BME280;39658;51.090;-1.786;2023-05-24T05:37:10;102276.34;;;7.63;100.00
53262;BME280;39658;51.090;-1.786;2023-05-24T05:39:37;102289.03;;;7.78;100.00
53262;BME280;39658;51.090;-1.786;2023-05-24T05:42:05;102290.44;;;7.90;100.00
53262;BME280;39658;51.090;-1.786;2023-05-24T05:44:32;102304.91;;;8.05;100.00
53262;BME280;39658;51.090;-1.786;2023-05-24T05:46:59;102329.84;;;8.20;100.00
53262;BME280;39658;51.090;-1.786;2023-05-24T05:49:26;102354.06;;;8.30;100.00
53262;BME280;39658;51.090;-1.786;2023-05-24T05:51:52;102380.97;;;8.38;100.00
53262;BME280;39658;51.090;-1.786;2023-05-24T05:54:19;102399.19;;;8.46;100.00
53262;BME280;39658;51.090;-1.786;2023-05-24T05:56:46;102432.25;;;8.53;100.00
53262;BME280;39658;51.090;-1.786;2023-05-24T05:59:14;102456.56;;;8.61;100.00
53262;BME280;39658;51.090;-1.786;2023-05-24T06:01:42;102485.16;;;8.72;100.00
53262;BME280;39658;51.090;-1.786;2023-05-24T06:04:10;102516.31;;;8.86;100.00
53262;BME280;39658;51.090;-1.786;2023-05-24T06:06:37;102542.22;;;9.00;100.00
53262;BME280;39658;51.090;-1.786;2023-05-24T06:09:03;102557.53;;;9.13;100.00
53262;BME280;39658;51.090;-1.786;2023-05-24T06:11:30;102593.88;;;9.30;100.00
53262;BME280;39658;51.090;-1.786;2023-05-24T06:13:57;102611.88;;;9.44;100.00
53262;BME280;39658;51.090;-1.786;2023-05-24T06:16:25;102635.09;;;9.60;100.00
53262;BME280;39658;51.090;-1.786;2023-05-24T06:18:53;102649.69;;;9.72;100.00
53262;BME280;39658;51.090;-1.786;2023-05-24T06:21:20;102666.78;;;9.85;100.00
53262;BME280;39658;51.090;-1.786;2023-05-24T06:23:47;102677.88;;;9.96;100.00
53262;BME280;39658;51.090;-1.786;2023-05-24T06:26:14;102698.53;;;10.10;100.00
53262;BME280;39658;51.090;-1.786;2023-05-24T06:28:40;102713.16;;;10.19;100.00
53262;BME280;39658;51.090;-1.786;2023-05-24T06:31:07;102737.38;;;10.32;100.00
53262;BME280;39658;51.090;-1.786;2023-05-24T06:33:35;102756.47;;;10.40;100.00
53262;BME280;39658;51.090;-1.786;2023-05-24T06:36:02;102779.84;;;10.51;100.00
53262;BME280;39658;51.090;-1.786;2023-05-24T06:38:29;102791.66;;;10.66;100.00
53262;BME280;39658;51.090;-1.786;2023-05-24T06:40:57;102807.00;;;10.80;100.00
53262;BME280;39658;51.090;-1.786;2023-05-24T06:43:24;102813.47;;;10.98;100.00
53262;BME280;39658;51.090;-1.786;2023-05-24T06:45:51;102820.75;;;11.16;100.00
53262;BME280;39658;51.090;-1.786;2023-05-24T06:48:17;102833.25;;;11.36;100.00
53262;BME280;39658;51.090;-1.786;2023-05-24T06:50:46;102853.78;;;11.53;100.00
53262;BME280;39658;51.090;-1.786;2023-05-24T06:53:13;102894.50;;;11.71;100.00
53262;BME280;39658;51.090;-1.786;2023-05-24T06:55:40;102931.69;;;11.92;100.00
53262;BME280;39658;51.090;-1.786;2023-05-24T06:58:07;102953.84;;;12.13;100.00
53262;BME280;39658;51.090;-1.786;2023-05-24T07:00:39;102969.94;;;12.30;100.00
53262;BME280;39658;51.090;-1.786;2023-05-24T07:03:05;103005.25;;;12.53;100.00
53262;BME280;39658;51.090;-1.786;2023-05-24T07:05:32;103030.28;;;12.68;100.00
53262;BME280;39658;51.090;-1.786;2023-05-24T07:08:01;103043.72;;;12.85;100.00
53262;BME280;39658;51.090;-1.786;2023-05-24T07:10:28;103058.84;;;13.05;100.00
53262;BME280;39658;51.090;-1.786;2023-05-24T07:12:55;103057.19;;;13.25;100.00
53262;BME280;39658;51.090;-1.786;2023-05-24T07:15:22;103056.59;;;13.40;100.00
53262;BME280;39658;51.090;-1.786;2023-05-24T07:17:49;103069.16;;;13.57;100.00
53262;BME280;39658;51.090;-1.786;2023-05-24T07:20:16;103104.84;;;13.71;100.00
53262;BME280;39658;51.090;-1.786;2023-05-24T07:22:42;103122.91;;;13.83;100.00
53262;BME280;39658;51.090;-1.786;2023-05-24T07:25:11;103147.44;;;14.09;100.00
53262;BME280;39658;51.090;-1.786;2023-05-24T07:27:38;103157.75;;;14.16;100.00
53262;BME280;39658;51.090;-1.786;2023-05-24T07:30:06;103159.41;;;14.19;100.00
53262;BME280;39658;51.090;-1.786;2023-05-24T07:32:33;103149.00;;;14.14;100.00
53262;BME280;39658;51.090;-1.786;2023-05-24T07:35:00;103158.88;;;14.11;100.00
53262;BME280;39658;51.090;-1.786;2023-05-24T07:37:28;103168.69;;;13.87;100.00
53262;BME280;39658;51.090;-1.786;2023-05-24T07:39:54;103168.44;;;13.93;100.00
53262;BME280;39658;51.090;-1.786;2023-05-24T07:42:23;103162.78;;;14.02;100.00
53262;BME280;39658;51.090;-1.786;2023-05-24T07:44:49;103162.44;;;14.10;100.00
53262;BME280;39658;51.090;-1.786;2023-05-24T07:47:16;103167.56;;;14.35;100.00
53262;BME280;39658;51.090;-1.786;2023-05-24T07:49:43;103164.50;;;14.44;100.00
53262;BME280;39658;51.090;-1.786;2023-05-24T07:52:10;103168.13;;;14.64;100.00
53262;BME280;39658;51.090;-1.786;2023-05-24T07:54:37;103171.19;;;14.94;100.00
53262;BME280;39658;51.090;-1.786;2023-05-24T07:57:04;103158.66;;;14.98;100.00
53262;BME280;39658;51.090;-1.786;2023-05-24T07:59:33;103141.34;;;15.08;100.00
53262;BME280;39658;51.090;-1.786;2023-05-24T08:02:00;103138.75;;;15.25;100.00
53262;BME280;39658;51.090;-1.786;2023-05-24T08:04:30;103135.34;;;15.60;100.00
53262;BME280;39658;51.090;-1.786;2023-05-24T08:06:57;103133.44;;;15.98;100.00
53262;BME280;39658;51.090;-1.786;2023-05-24T08:09:23;103100.56;;;16.35;100.00
53262;BME280;39658;51.090;-1.786;2023-05-24T08:11:52;103038.16;;;16.56;100.00
53262;BME280;39658;51.090;-1.786;2023-05-24T08:14:19;102990.75;;;16.63;100.00
53262;BME280;39658;51.090;-1.786;2023-05-24T08:16:47;102982.16;;;16.74;100.00
53262;BME280;39658;51.090;-1.786;2023-05-24T08:19:13;102969.97;;;17.01;100.00
53262;BME280;39658;51.090;-1.786;2023-05-24T08:21:40;102959.94;;;17.21;100.00
53262;BME280;39658;51.090;-1.786;2023-05-24T08:24:08;102832.75;;;17.23;100.00
53262;BME280;39658;51.090;-1.786;2023-05-24T08:26:34;102779.63;;;17.34;100.00
53262;BME280;39658;51.090;-1.786;2023-05-24T08:29:01;102841.25;;;17.44;100.00
53262;BME280;39658;51.090;-1.786;2023-05-24T08:31:29;102579.72;;;17.47;100.00
53262;BME280;39658;51.090;-1.786;2023-05-24T08:33:58;102459.94;;;17.44;100.00
53262;BME280;39658;51.090;-1.786;2023-05-24T08:36:25;102467.72;;;17.47;100.00
53262;BME280;39658;51.090;-1.786;2023-05-24T08:38:52;102595.53;;;17.63;100.00
53262;BME280;39658;51.090;-1.786;2023-05-24T08:41:19;102629.47;;;17.61;100.00
53262;BME280;39658;51.090;-1.786;2023-05-24T08:43:47;102687.22;;;17.62;100.00
53262;BME280;39658;51.090;-1.786;2023-05-24T08:46:16;102633.28;;;17.57;100.00
53262;BME280;39658;51.090;-1.786;2023-05-24T08:48:44;102661.44;;;17.75;100.00
53262;BME280;39658;51.090;-1.786;2023-05-24T08:51:13;102699.53;;;17.92;100.00
53262;BME280;39658;51.090;-1.786;2023-05-24T08:53:40;102663.38;;;18.01;100.00
53262;BME280;39658;51.090;-1.786;2023-05-24T08:56:15;102635.09;;;18.11;100.00
53262;BME280;39658;51.090;-1.786;2023-05-24T08:58:42;102623.69;;;18.22;100.00
53262;BME280;39658;51.090;-1.786;2023-05-24T09:01:10;102578.31;;;18.47;100.00
53262;BME280;39658;51.090;-1.786;2023-05-24T09:03:39;102466.31;;;18.57;100.00
53262;BME280;39658;51.090;-1.786;2023-05-24T09:06:08;102560.31;;;18.75;100.00
53262;BME280;39658;51.090;-1.786;2023-05-24T09:08:36;102510.38;;;18.89;100.00
53262;BME280;39658;51.090;-1.786;2023-05-24T09:11:04;102190.50;;;18.78;100.00
53262;BME280;39658;51.090;-1.786;2023-05-24T09:13:33;102087.16;;;19.01;100.00
53262;BME280;39658;51.090;-1.786;2023-05-24T09:16:01;101806.59;;;19.11;100.00
53262;BME280;39658;51.090;-1.786;2023-05-24T09:18:28;101302.53;;;19.37;100.00
53262;BME280;39658;51.090;-1.786;2023-05-24T09:20:55;101104.59;;;19.47;100.00
53262;BME280;39658;51.090;-1.786;2023-05-24T09:23:23;101578.75;;;19.38;100.00
53262;BME280;39658;51.090;-1.786;2023-05-24T09:25:52;101704.09;;;19.22;100.00
53262;BME280;39658;51.090;-1.786;2023-05-24T09:28:19;101724.81;;;19.29;100.00
53262;BME280;39658;51.090;-1.786;2023-05-24T09:30:57;101762.72;;;19.34;100.00
53262;BME280;39658;51.090;-1.786;2023-05-24T09:33:28;101762.91;;;19.52;100.00
53262;BME280;39658;51.090;-1.786;2023-05-24T09:35:57;101756.47;;;19.65;100.00
53262;BME280;39658;51.090;-1.786;2023-05-24T09:38:25;101754.34;;;19.99;100.00
53262;BME280;39658;51.090;-1.786;2023-05-24T09:41:04;101780.28;;;19.99;100.00
53262;BME280;39658;51.090;-1.786;2023-05-24T09:43:33;101770.13;;;20.02;100.00
53262;BME280;39658;51.090;-1.786;2023-05-24T09:46:01;101750.19;;;20.36;100.00
53262;BME280;39658;51.090;-1.786;2023-05-24T09:48:29;101761.88;;;20.25;100.00
53262;BME280;39658;51.090;-1.786;2023-05-24T09:51:03;101749.25;;;19.86;100.00
53262;BME280;39658;51.090;-1.786;2023-05-24T09:53:31;101721.25;;;20.00;100.00
53262;BME280;39658;51.090;-1.786;2023-05-24T09:55:59;101728.59;;;19.98;100.00
53262;BME280;39658;51.090;-1.786;2023-05-24T09:58:29;101738.28;;;19.49;100.00
53262;BME280;39658;51.090;-1.786;2023-05-24T10:01:04;101714.84;;;19.72;100.00
53262;BME280;39658;51.090;-1.786;2023-05-24T10:03:33;101717.69;;;19.90;100.00
53262;BME280;39658;51.090;-1.786;2023-05-24T10:06:00;101716.22;;;20.17;100.00
53262;BME280;39658;51.090;-1.786;2023-05-24T10:08:29;101727.47;;;20.59;100.00
53262;BME280;39658;51.090;-1.786;2023-05-24T10:10:57;101752.28;;;20.42;100.00
53262;BME280;39658;51.090;-1.786;2023-05-24T10:13:25;101745.38;;;20.59;100.00
53262;BME280;39658;51.090;-1.786;2023-05-24T10:15:54;101753.13;;;20.82;100.00
53262;BME280;39658;51.090;-1.786;2023-05-24T10:18:21;101734.00;;;21.14;100.00
53262;BME280;39658;51.090;-1.786;2023-05-24T10:20:49;101757.28;;;21.61;100.00
53262;BME280;39658;51.090;-1.786;2023-05-24T10:23:19;101768.91;;;21.51;100.00
53262;BME280;39658;51.090;-1.786;2023-05-24T10:25:49;101761.16;;;21.39;100.00
53262;BME280;39658;51.090;-1.786;2023-05-24T10:28:19;101754.91;;;21.48;100.00
53262;BME280;39658;51.090;-1.786;2023-05-24T10:30:57;101758.78;;;21.36;100.00
53262;BME280;39658;51.090;-1.786;2023-05-24T10:33:27;101756.34;;;21.42;100.00
53262;BME280;39658;51.090;-1.786;2023-05-24T10:35:55;101754.50;;;21.52;100.00
53262;BME280;39658;51.090;-1.786;2023-05-24T10:38:22;101747.22;;;21.73;100.00
53262;BME280;39658;51.090;-1.786;2023-05-24T10:40:50;101761.00;;;21.78;100.00
53262;BME280;39658;51.090;-1.786;2023-05-24T10:43:17;101767.78;;;21.82;100.00
53262;BME280;39658;51.090;-1.786;2023-05-24T10:45:48;101761.41;;;21.83;100.00
53262;BME280;39658;51.090;-1.786;2023-05-24T10:48:35;101765.03;;;21.92;100.00
53262;BME280;39658;51.090;-1.786;2023-05-24T10:51:33;101772.97;;;22.11;100.00
53262;BME280;39658;51.090;-1.786;2023-05-24T10:54:12;101782.47;;;22.05;100.00
53262;BME280;39658;51.090;-1.786;2023-05-24T10:56:40;101778.44;;;22.19;100.00
53262;BME280;39658;51.090;-1.786;2023-05-24T10:59:08;101801.00;;;22.27;100.00
53262;BME280;39658;51.090;-1.786;2023-05-24T11:01:35;101794.53;;;22.47;100.00
53262;BME280;39658;51.090;-1.786;2023-05-24T11:04:11;101786.75;;;22.62;100.00
53262;BME280;39658;51.090;-1.786;2023-05-24T11:06:44;101791.34;;;22.70;100.00
53262;BME280;39658;51.090;-1.786;2023-05-24T11:09:13;101796.13;;;22.58;100.00
53262;BME280;39658;51.090;-1.786;2023-05-24T11:11:43;101790.06;;;22.56;100.00
53262;BME280;39658;51.090;-1.786;2023-05-24T11:14:11;101788.75;;;22.60;100.00
53262;BME280;39658;51.090;-1.786;2023-05-24T11:16:38;101776.00;;;22.62;100.00
53262;BME280;39658;51.090;-1.786;2023-05-24T11:19:14;101790.06;;;22.56;100.00
53262;BME280;39658;51.090;-1.786;2023-05-24T11:21:43;101768.44;;;22.84;100.00
53262;BME280;39658;51.090;-1.786;2023-05-24T11:24:09;101788.47;;;23.07;100.00
53262;BME280;39658;51.090;-1.786;2023-05-24T11:26:37;101789.28;;;23.26;100.00
53262;BME280;39658;51.090;-1.786;2023-05-24T11:29:04;101782.41;;;23.32;100.00
53262;BME280;39658;51.090;-1.786;2023-05-24T11:31:31;101781.97;;;23.44;100.00
53262;BME280;39658;51.090;-1.786;2023-05-24T11:33:59;101787.25;;;23.54;100.00
53262;BME280;39658;51.090;-1.786;2023-05-24T11:36:28;101786.66;;;23.42;100.00
53262;BME280;39658;51.090;-1.786;2023-05-24T11:38:56;101786.84;;;23.49;100.00
53262;BME280;39658;51.090;-1.786;2023-05-24T11:41:23;101794.50;;;23.62;100.00
53262;BME280;39658;51.090;-1.786;2023-05-24T11:43:50;101787.28;;;23.71;100.00
53262;BME280;39658;51.090;-1.786;2023-05-24T11:46:17;101780.69;;;23.91;100.00
53262;BME280;39658;51.090;-1.786;2023-05-24T11:48:54;101784.34;;;23.82;100.00
53262;BME280;39658;51.090;-1.786;2023-05-24T11:51:25;101788.56;;;23.84;100.00
53262;BME280;39658;51.090;-1.786;2023-05-24T11:53:54;101789.72;;;23.82;100.00
53262;BME280;39658;51.090;-1.786;2023-05-24T11:56:21;101796.91;;;23.73;100.00
53262;BME280;39658;51.090;-1.786;2023-05-24T11:58:49;101800.31;;;23.83;97.54
53262;BME280;39658;51.090;-1.786;2023-05-24T12:01:23;101796.38;;;23.96;100.00
53262;BME280;39658;51.090;-1.786;2023-05-24T12:03:50;101787.63;;;24.10;100.00
53262;BME280;39658;51.090;-1.786;2023-05-24T12:06:18;101793.19;;;24.00;100.00
53262;BME280;39658;51.090;-1.786;2023-05-24T12:08:46;101791.31;;;24.01;100.00
53262;BME280;39658;51.090;-1.786;2023-05-24T12:11:14;101798.09;;;24.13;100.00
53262;BME280;39658;51.090;-1.786;2023-05-24T12:13:42;101799.06;;;24.04;100.00
53262;BME280;39658;51.090;-1.786;2023-05-24T12:16:10;101794.34;;;24.06;100.00
53262;BME280;39658;51.090;-1.786;2023-05-24T12:18:38;101787.91;;;23.91;100.00
53262;BME280;39658;51.090;-1.786;2023-05-24T12:21:08;101797.09;;;23.80;92.75
53262;BME280;39658;51.090;-1.786;2023-05-24T12:23:36;101788.47;;;24.02;100.00
53262;BME280;39658;51.090;-1.786;2023-05-24T12:26:04;101780.22;;;24.04;95.04
53262;BME280;39658;51.090;-1.786;2023-05-24T12:28:36;101779.06;;;24.07;100.00
53262;BME280;39658;51.090;-1.786;2023-05-24T12:31:04;101781.06;;;24.05;99.83
53262;BME280;39658;51.090;-1.786;2023-05-24T12:33:32;101775.16;;;24.01;97.19
53262;BME280;39658;51.090;-1.786;2023-05-24T12:36:00;101769.28;;;24.14;97.10
53262;BME280;39658;51.090;-1.786;2023-05-24T12:38:27;101778.56;;;24.36;96.75
53262;BME280;39658;51.090;-1.786;2023-05-24T12:40:54;101773.53;;;24.33;91.64